Madoc, Canada
Current Conditions -  °F | °C
As of 3:00 PM on Sunday 21 Dec 2014 (Local Time) from CYTR Reporting Station
Few Clouds Few Clouds  
Wind Chill: 34°   Ceiling: Unl
Heat Index: 34°   Visibility: 15mi
Dew Point: 23°   Wind: 3mph
Humidity: 65%   Direction: 180°S
Pressure: 30.29"   Gusts: NA
Location:  44.52°N, 77.48°W
Report Text: CYTR 212000Z 18003KT 15SM FEW030 01/M05 A3029 RMK SC1 SLP263
Loading
Personal Weather Stations






























Interactive Weather Map New forecast layout! Learn more

10-Day Weather Forecast

Advertisements
Track Severe Weather on mobile